AGROMETEOROLOŠKI PORTAL

vinorodna pokrajina

Temelj dobrega kmetovanja

Pregled podatkov za lokacijo MARIBOR - LETALIŠČE ARSO, meteorološka postaja 121

Pregled senzorjev na lokaciji

ID Ime Zadnja
vrednost
Datum in čas
meritve
(lokalni čas)
Tip
senzorja
6038 Zračni tlak (hPa) 983 hPa 25.9.2022 11:00 ARSO
2661 Sončno sevanje (W/m2) 60 W/m2 25.9.2022 11:00 ARSO
2667 Padavine (mm) 0,2 mm 25.9.2022 11:00 ARSO
2675 Relativna zračna vlaga (2 m) (% RH) 96 % RH 25.9.2022 11:00 ARSO
5959 Temperatura tal (10 cm) (°C) 14,7 °C 25.9.2022 11:00 ARSO
5960 Temperatura tal (30 cm) (°C) 15,6 °C 25.9.2022 11:00 ARSO
5961 Temperatura tal (5 cm) (°C) 13,9 °C 25.9.2022 11:00 ARSO
2674 Temperatura (2 m) (°C) 12,5 °C 25.9.2022 11:00 ARSO
5963 Smer vetra (2 m) (°) 138 ° 25.9.2022 11:00 ARSO
5962 Hitrost vetra (2 m) (km/h) 6 km/h 25.9.2022 11:00 ARSO

Pregled podatkov zadnjih 24 ur

Zap.
št.
Datum in čas
(lokalni čas)
MARIBOR - LETALIŠČE ARSO
Zračni
tlak
Sončno
sevanje
Padavine Relativna
zračna
vlaga
(2
m)
Temperatura
tal
(10
cm)
Temperatura
tal
(30
cm)
Temperatura
tal
(5
cm)
Temperatura
(2
m)
Smer
vetra
(2
m)
Hitrost
vetra
(2
m)
1 25.9.2022 11:00 982,5 60 0,2 96 14,7 15,6 13,9 12,5 138 6
2 25.9.2022 10:30 982,7 40 1,1 96 14,7 15,7 13,9 12,3 164 6
3 25.9.2022 10:00 982,7 26 1,5 96 14,7 15,7 13,9 12,2 178 9
4 25.9.2022 09:30 982,5 27 0,7 95 14,7 15,7 13,8 12,3 173 9
5 25.9.2022 09:00 982,4 23 0,4 95 14,7 15,7 13,8 12,3 161 6
6 25.9.2022 08:30 982,4 11 0,2 93 14,7 15,7 13,8 12,2 180 8
7 25.9.2022 08:00 982,4 13 0 93 14,7 15,7 13,8 12,5 178 9
8 25.9.2022 07:30 982,4 4 0,4 94 14,7 15,7 13,9 12,7 179 10
9 25.9.2022 07:00 982,3 0 0,9 92 14,7 15,7 13,9 12,9 206 14
10 25.9.2022 06:30 982,1 0 0,5 92 14,8 15,7 13,9 12,8 202 14
11 25.9.2022 06:00 982 0 0,5 91 14,8 15,7 13,9 13 189 14
12 25.9.2022 05:30 982,3 0 0,1 89 14,8 15,7 13,9 13,3 195 14
13 25.9.2022 05:00 982,1 0 0,1 87 14,8 15,7 13,9 13,7 199 19
14 25.9.2022 04:30 982,1 0 0 80 14,8 15,8 13,9 14,5 211 18
15 25.9.2022 04:00 982,1 0 0 77 14,8 15,8 13,9 14,8 215 11
16 25.9.2022 03:30 982,2 0 0 77 14,8 15,8 13,9 14,6 171 12
17 25.9.2022 03:00 982,3 0 0 77 14,9 15,8 13,9 14,6 174 13
18 25.9.2022 02:30 982,6 0 0 75 14,9 15,8 13,9 14,7 179 13
19 25.9.2022 02:00 982,6 0 0 75 15 15,8 13,9 14,6 204 15
20 25.9.2022 01:30 982,7 0 0 73 15 15,8 14 14,6 198 10
21 25.9.2022 01:00 982,8 0 0 72 15,1 15,8 14,1 14,5 193 10
22 25.9.2022 00:30 982,9 0 0 71 15,2 15,8 14,2 14,7 171 9
23 25.9.2022 00:00 983,1 0 0 70 15,3 15,8 14,2 14,8 168 9
24 24.9.2022 23:30 983,1 0 0 66 15,4 15,8 14,4 15,2 179 6
25 24.9.2022 23:00 983 0 0 65 15,4 15,8 14,5 15,1 193 12
26 24.9.2022 22:30 983,1 0 0 64 15,5 15,8 14,7 15,3 197 12
27 24.9.2022 22:00 983 0 0 64 15,6 15,8 14,8 15,4 202 12
28 24.9.2022 21:30 983 0 0 64 15,8 15,7 15 15,6 173 10
29 24.9.2022 21:00 982,9 0 0 62 15,8 15,7 15,2 16 186 6
30 24.9.2022 20:30 982,9 0 0 61 15,9 15,7 15,4 16,2 215 8
31 24.9.2022 20:00 982,7 0 0 63 16 15,6 15,6 16,2 172 10
32 24.9.2022 19:30 982,6 0 0 62 16,1 15,6 15,8 16,5 180 10
33 24.9.2022 19:00 982,7 2 0 64 16,2 15,5 16,1 16,3 188 12
34 24.9.2022 18:30 982,7 11 0 63 16,2 15,5 16,3 16,6 203 15
35 24.9.2022 18:00 982,8 27 0 60 16,2 15,5 16,6 17 215 14
36 24.9.2022 17:30 982,7 64 0 57 16,2 15,4 16,8 17,7 215 15
37 24.9.2022 17:00 982,7 151 0 53 16,1 15,3 16,9 18,5 212 15
38 24.9.2022 16:30 982,5 239 0 52 16 15,3 16,9 18,9 218 17
39 24.9.2022 16:00 982,6 238 0 53 15,9 15,2 16,9 18,7 218 17
40 24.9.2022 15:30 982,8 260 0 52 15,7 15,2 16,9 18,8 222 24
41 24.9.2022 15:00 982,8 475 0 49 15,5 15,1 16,7 19,5 222 24
42 24.9.2022 14:30 983 521 0 51 15,3 15,1 16,4 19,4 215 22
43 24.9.2022 14:00 472 0 52 15 15,1 16,1 18,8 224 24
44 24.9.2022 13:30 983,3 452 0 53 14,7 15,1 15,9 18,3 228 23
45 24.9.2022 13:00 983,6 525 0 52 14,3 15,1 15,4 18,4 225 24
46 24.9.2022 12:30 983,5 620 0 54 14 15,1 14,8 18,1 223 24